Time;durP1;ratioP1;P1;durP2;ratioP2;P2;SDS_P1;SDS_P2;PMS_P1;PMS_P2;Temp;Humidity;BMP_temperature;BMP_pressure;BME280_temperature;BME280_humidity;BME280_pressure;Samples;Min_cycle;Max_cycle;Signal;HPM_P1;HPM_P2
2023/09/13 00:00:09;;;;;;;22.27;19.20;;;;;19.00;96651.00;;;;5057479;28;20205;-86
2023/09/13 00:02:58;;;;;;;22.33;20.00;;;;;18.80;96650.00;;;;5053637;28;20212;-85
2023/09/13 00:05:47;;;;;;;20.57;18.33;;;;;18.70;96651.00;;;;5054416;28;20201;-85
2023/09/13 00:08:38;;;;;;;21.80;19.20;;;;;18.90;96650.00;;;;5056460;28;20196;-86
2023/09/13 00:11:27;;;;;;;22.63;20.20;;;;;18.80;96640.00;;;;5052236;28;20311;-85
2023/09/13 00:14:16;;;;;;;21.23;18.97;;;;;18.80;96635.00;;;;5054386;28;21005;-85
2023/09/13 00:17:05;;;;;;;24.97;19.93;;;;;19.00;96642.00;;;;5055612;28;20205;-85
2023/09/13 00:19:57;;;;;;;22.33;19.00;;;;;19.30;96642.00;;;;5056590;28;20215;-86
2023/09/13 00:22:46;;;;;;;21.23;18.90;;;;;19.30;96645.00;;;;5052516;28;20212;-86
2023/09/13 00:25:36;;;;;;;23.03;19.60;;;;;19.20;96643.00;;;;5053443;28;20677;-86
2023/09/13 00:28:25;;;;;;;24.00;19.50;;;;;19.10;96648.00;;;;5055246;28;20209;-86
2023/09/13 00:31:14;;;;;;;21.80;19.33;;;;;19.40;96634.00;;;;5058165;28;20235;-85
2023/09/13 00:34:03;;;;;;;25.93;20.23;;;;;19.50;96644.00;;;;5052902;28;20595;-85
2023/09/13 00:36:52;;;;;;;26.23;19.27;;;;;19.50;96642.00;;;;5052432;28;20215;-85
2023/09/13 00:39:41;;;;;;;22.43;20.13;;;;;19.30;96636.00;;;;5059607;28;20224;-85
2023/09/13 00:42:32;;;;;;;20.63;18.53;;;;;19.10;96637.00;;;;5055915;28;20196;-85
2023/09/13 00:45:21;;;;;;;22.60;20.20;;;;;19.20;96642.00;;;;5051094;28;20208;-85
2023/09/13 00:48:10;;;;;;;21.33;19.00;;;;;19.10;96642.00;;;;5052026;28;20208;-86
2023/09/13 00:51:01;;;;;;;21.97;18.60;;;;;19.00;96637.00;;;;5051084;28;20237;-85
2023/09/13 00:53:50;;;;;;;23.07;19.37;;;;;18.90;96629.00;;;;5054542;28;20204;-86
2023/09/13 00:56:41;;;;;;;22.90;18.67;;;;;18.80;96632.00;;;;5055504;28;20200;-85
2023/09/13 00:59:31;;;;;;;21.13;18.87;;;;;18.70;96636.00;;;;5055440;28;20220;-86
2023/09/13 01:02:21;;;;;;;21.90;18.40;;;;;18.40;96644.00;;;;5052632;28;20762;-85
2023/09/13 01:05:12;;;;;;;20.33;18.27;;;;;18.20;96650.00;;;;5056236;28;20666;-85
2023/09/13 01:08:01;;;;;;;30.17;20.50;;;;;19.00;96637.00;;;;5049647;28;20204;-85
2023/09/13 01:10:50;;;;;;;22.60;19.90;;;;;19.40;96627.00;;;;5050141;28;20224;-85
2023/09/13 01:13:39;;;;;;;23.07;20.63;;;;;19.40;96630.00;;;;5056927;28;20276;-85
2023/09/13 01:16:38;;;;;;;23.93;21.07;;;;;19.30;96622.00;;;;5050733;28;20196;-85
2023/09/13 01:19:42;;;;;;;23.70;20.17;;;;;19.20;96625.00;;;;5054777;28;20220;-86
2023/09/13 01:23:05;;;;;;;21.77;19.53;;;;;19.30;96617.00;;;;5054866;28;20203;-85
2023/09/13 01:26:09;;;;;;;28.17;21.00;;;;;19.40;96620.00;;;;5052278;28;20216;-86
2023/09/13 01:29:00;;;;;;;22.47;19.97;;;;;19.40;96611.00;;;;5050637;28;20204;-85
2023/09/13 01:31:50;;;;;;;25.83;20.87;;;;;19.60;96610.00;;;;5052963;28;20224;-84
2023/09/13 01:34:39;;;;;;;20.77;18.63;;;;;19.50;96607.00;;;;5052182;28;20307;-86
2023/09/13 01:37:28;;;;;;;23.30;20.80;;;;;19.40;96606.00;;;;5050922;28;20200;-85
2023/09/13 01:40:17;;;;;;;22.43;19.13;;;;;19.00;96609.00;;;;5051089;28;20262;-85
2023/09/13 01:43:06;;;;;;;22.87;20.27;;;;;18.90;96609.00;;;;5050394;28;20218;-85
2023/09/13 01:45:58;;;;;;;21.53;19.33;;;;;19.40;96601.00;;;;5053239;28;20212;-85
2023/09/13 01:48:49;;;;;;;23.33;20.07;;;;;19.60;96599.00;;;;5053331;28;20211;-85
2023/09/13 01:51:38;;;;;;;20.87;18.73;;;;;19.50;96604.00;;;;5051036;28;20212;-86
2023/09/13 01:54:27;;;;;;;23.13;18.80;;;;;19.20;96586.00;;;;5051010;28;20204;-85
2023/09/13 01:57:16;;;;;;;20.83;18.70;;;;;18.70;96599.00;;;;5050607;28;20215;-85
2023/09/13 02:00:06;;;;;;;23.13;18.47;;;;;18.70;96598.00;;;;5050748;28;20239;-85
2023/09/13 02:02:56;;;;;;;21.10;18.63;;;;;18.90;96589.00;;;;5046329;28;20200;-85
2023/09/13 02:05:45;;;;;;;22.77;20.23;;;;;18.90;96583.00;;;;5048986;28;20206;-85
2023/09/13 02:08:36;;;;;;;23.33;20.87;;;;;19.00;96571.00;;;;5052718;28;20623;-84
2023/09/13 02:11:25;;;;;;;22.60;20.20;;;;;18.90;96578.00;;;;5054094;28;20231;-85
2023/09/13 02:14:14;;;;;;;22.10;18.83;;;;;18.90;96573.00;;;;5050027;28;20200;-85
2023/09/13 02:17:04;;;;;;;23.73;19.33;;;;;18.40;96573.00;;;;5054796;28;20204;-86
2023/09/13 02:19:54;;;;;;;25.40;19.70;;;;;18.60;96566.00;;;;5047325;28;20235;-84
2023/09/13 02:22:43;;;;;;;21.20;18.90;;;;;18.70;96563.00;;;;5051365;28;20200;-85
2023/09/13 02:25:37;;;;;;;25.47;19.57;;;;;18.60;96559.00;;;;5047784;28;20204;-84
2023/09/13 02:28:26;;;;;;;22.73;19.77;;;;;18.30;96564.00;;;;5048513;28;20670;-85
2023/09/13 02:31:22;;;;;;;24.07;20.20;;;;;18.50;96562.00;;;;5049331;28;20225;-84
2023/09/13 02:34:11;;;;;;;23.40;20.87;;;;;18.70;96577.00;;;;5046772;28;20216;-85
2023/09/13 02:37:01;;;;;;;26.37;20.30;;;;;18.40;96580.00;;;;5050666;28;20211;-86
2023/09/13 02:39:50;;;;;;;22.07;19.70;;;;;18.60;96587.00;;;;5052949;28;20228;-84
2023/09/13 02:42:39;;;;;;;24.30;19.47;;;;;18.50;96606.00;;;;5052074;28;20212;-85
2023/09/13 02:45:29;;;;;;;23.00;20.40;;;;;19.00;96616.00;;;;5050577;28;20212;-85
2023/09/13 02:48:18;;;;;;;26.30;22.97;;;;;19.40;96597.00;;;;5052578;28;20204;-85
2023/09/13 02:51:13;;;;;;;26.67;21.83;;;;;19.60;96598.00;;;;5051543;28;20233;-84
2023/09/13 02:54:04;;;;;;;23.57;21.17;;;;;19.80;96604.00;;;;5045937;28;20205;-85
2023/09/13 02:56:53;;;;;;;28.30;22.70;;;;;19.80;96605.00;;;;5043894;28;20212;-85
2023/09/13 02:59:42;;;;;;;24.30;21.70;;;;;19.50;96585.00;;;;5048412;28;20603;-85
2023/09/13 03:02:31;;;;;;;21.13;18.93;;;;;19.40;96587.00;;;;5050178;28;20204;-85
2023/09/13 03:05:20;;;;;;;23.40;19.57;;;;;19.40;96590.00;;;;5052419;28;20620;-84
2023/09/13 03:08:09;;;;;;;24.47;19.90;;;;;19.70;96599.00;;;;5050477;28;20208;-84
2023/09/13 03:11:08;;;;;;;22.90;20.23;;;;;19.90;96593.00;;;;5049339;28;20220;-85
2023/09/13 03:13:57;;;;;;;24.07;19.67;;;;;20.00;96583.00;;;;5051876;28;20220;-85
2023/09/13 03:16:46;;;;;;;26.93;20.93;;;;;19.60;96585.00;;;;5048966;28;20599;-86
2023/09/13 03:19:35;;;;;;;21.33;18.50;;;;;19.30;96574.00;;;;5053116;28;20614;-85
2023/09/13 03:22:24;;;;;;;24.53;20.53;;;;;19.50;96576.00;;;;5054871;28;20583;-85
2023/09/13 03:25:13;;;;;;;24.03;21.37;;;;;19.90;96572.00;;;;5052744;28;20251;-85
2023/09/13 03:28:04;;;;;;;23.07;20.67;;;;;20.10;96572.00;;;;5049089;28;20587;-85
2023/09/13 03:30:53;;;;;;;22.60;19.53;;;;;19.40;96569.00;;;;5052335;28;20274;-84
2023/09/13 03:33:43;;;;;;;23.03;18.73;;;;;19.20;96565.00;;;;5053696;28;20674;-84
2023/09/13 03:36:32;;;;;;;24.97;19.73;;;;;19.40;96576.00;;;;5052929;28;20237;-84
2023/09/13 03:39:21;;;;;;;22.67;18.17;;;;;19.40;96575.00;;;;5054214;28;20228;-84
2023/09/13 03:42:10;;;;;;;25.43;19.43;;;;;19.70;96584.00;;;;5054531;28;20236;-85
2023/09/13 03:45:01;;;;;;;21.20;18.90;;;;;19.90;96574.00;;;;5048932;28;20216;-84
2023/09/13 03:47:50;;;;;;;27.27;21.57;;;;;20.10;96585.00;;;;5055194;28;20205;-86
2023/09/13 03:50:39;;;;;;;23.30;19.50;;;;;19.90;96573.00;;;;5057787;28;20216;-85
2023/09/13 03:53:28;;;;;;;22.10;18.57;;;;;19.90;96573.00;;;;5057128;28;20208;-86
2023/09/13 03:56:17;;;;;;;20.03;17.93;;;;;19.60;96571.00;;;;5055557;28;20213;-86
2023/09/13 03:59:06;;;;;;;21.57;19.17;;;;;19.60;96584.00;;;;5053080;28;20677;-85
2023/09/13 04:01:57;;;;;;;21.87;18.83;;;;;20.10;96580.00;;;;5047833;28;20503;-85
2023/09/13 04:04:47;;;;;;;25.80;19.30;;;;;20.20;96584.00;;;;5048222;28;20335;-85
2023/09/13 04:07:36;;;;;;;23.07;20.10;;;;;20.00;96573.00;;;;5051009;28;20619;-85
2023/09/13 04:10:25;;;;;;;27.73;21.07;;;;;19.70;96575.00;;;;5050411;28;20216;-85
2023/09/13 04:13:15;;;;;;;21.27;19.03;;;;;20.10;96580.00;;;;5051322;28;20599;-86
2023/09/13 04:16:06;;;;;;;28.20;21.30;;;;;19.80;96582.00;;;;5050057;28;20208;-86
2023/09/13 04:18:56;;;;;;;22.30;18.67;;;;;19.30;96582.00;;;;5050526;28;20197;-86
2023/09/13 04:21:45;;;;;;;22.07;19.10;;;;;19.40;96579.00;;;;5052495;28;20223;-86
2023/09/13 04:24:34;;;;;;;22.53;19.50;;;;;19.50;96591.00;;;;5054787;28;20210;-85
2023/09/13 04:27:24;;;;;;;24.13;19.63;;;;;19.50;96604.00;;;;5053660;28;20208;-85
2023/09/13 04:30:14;;;;;;;20.23;18.10;;;;;19.40;96600.00;;;;5053527;28;20576;-86
2023/09/13 04:33:04;;;;;;;20.47;18.30;;;;;19.70;96602.00;;;;5050843;28;20230;-85
2023/09/13 04:35:54;;;;;;;20.73;18.33;;;;;19.80;96613.00;;;;5048250;28;20212;-85
2023/09/13 04:38:44;;;;;;;21.57;18.10;;;;;19.80;96605.00;;;;5054175;28;20196;-86
2023/09/13 04:41:33;;;;;;;21.93;19.67;;;;;19.80;96609.00;;;;5051401;28;20721;-85
2023/09/13 04:44:22;;;;;;;24.73;18.43;;;;;20.00;96602.00;;;;5051393;28;20200;-85
2023/09/13 04:47:11;;;;;;;24.13;19.83;;;;;20.10;96604.00;;;;5053600;28;20200;-86
2023/09/13 04:50:00;;;;;;;22.43;18.37;;;;;19.80;96604.00;;;;5048440;28;20595;-85
2023/09/13 04:52:50;;;;;;;22.93;18.37;;;;;19.40;96604.00;;;;5053104;28;20196;-85
2023/09/13 04:55:42;;;;;;;19.97;17.87;;;;;19.50;96603.00;;;;5049183;28;20212;-86
2023/09/13 04:58:31;;;;;;;20.70;18.53;;;;;19.40;96604.00;;;;5052075;28;20200;-86
2023/09/13 05:01:21;;;;;;;25.40;19.67;;;;;19.30;96600.00;;;;5051865;28;20243;-86
2023/09/13 05:04:10;;;;;;;27.83;19.87;;;;;19.60;96607.00;;;;5054336;28;20204;-85
2023/09/13 05:06:59;;;;;;;22.70;19.67;;;;;19.60;96606.00;;;;5049438;28;20262;-85
2023/09/13 05:09:49;;;;;;;19.67;17.60;;;;;19.90;96610.00;;;;5051614;28;20215;-85
2023/09/13 05:12:38;;;;;;;25.93;18.30;;;;;19.30;96609.00;;;;5054895;28;20232;-87
2023/09/13 05:15:27;;;;;;;21.87;18.77;;;;;19.50;96615.00;;;;5052468;28;20200;-86
2023/09/13 05:18:16;;;;;;;20.27;17.97;;;;;19.50;96624.00;;;;5052816;28;20213;-85
2023/09/13 05:21:05;;;;;;;23.10;20.20;;;;;19.90;96624.00;;;;5048664;28;20235;-85
2023/09/13 05:23:54;;;;;;;25.33;19.77;;;;;19.90;96620.00;;;;5047269;28;20204;-85
2023/09/13 05:26:45;;;;;;;24.97;22.17;;;;;20.00;96623.00;;;;5051909;28;20674;-84
2023/09/13 05:29:34;;;;;;;26.17;20.80;;;;;19.90;96622.00;;;;5050758;28;20571;-85
2023/09/13 05:32:23;;;;;;;24.07;21.57;;;;;20.20;96625.00;;;;5048351;28;20225;-85
2023/09/13 05:35:12;;;;;;;22.67;19.50;;;;;19.90;96623.00;;;;5046236;28;20211;-85
2023/09/13 05:38:01;;;;;;;26.83;19.93;;;;;20.10;96623.00;;;;5051417;28;20220;-86
2023/09/13 05:40:50;;;;;;;22.70;19.17;;;;;20.10;96630.00;;;;5046960;28;20232;-85
2023/09/13 05:43:42;;;;;;;19.57;17.57;;;;;19.60;96630.00;;;;5047925;28;20200;-85
2023/09/13 05:46:31;;;;;;;20.40;16.40;;;;;19.90;96627.00;;;;5048754;28;20200;-85
2023/09/13 05:49:20;;;;;;;22.13;18.67;;;;;20.00;96630.00;;;;5048613;28;20607;-85
2023/09/13 05:52:09;;;;;;;22.50;17.47;;;;;20.20;96634.00;;;;5047373;28;20231;-85
2023/09/13 05:54:58;;;;;;;23.37;16.97;;;;;20.10;96637.00;;;;5045455;28;20443;-84
2023/09/13 05:57:49;;;;;;;23.03;17.27;;;;;20.20;96628.00;;;;5048339;28;20201;-86
2023/09/13 06:00:42;;;;;;;18.50;15.90;;;;;20.20;96634.00;;;;5050757;28;20240;-85
2023/09/13 06:03:32;;;;;;;19.30;17.30;;;;;20.30;96644.00;;;;5047776;28;20234;-85
2023/09/13 06:06:21;;;;;;;19.43;17.40;;;;;20.50;96630.00;;;;5048640;28;20271;-84
2023/09/13 06:09:10;;;;;;;20.67;15.27;;;;;20.60;96639.00;;;;5048723;28;20212;-85
2023/09/13 06:12:01;;;;;;;18.67;15.73;;;;;20.90;96637.00;;;;5050037;28;20229;-85
2023/09/13 06:14:51;;;;;;;18.30;15.17;;;;;20.60;96632.00;;;;5045699;28;20205;-86
2023/09/13 06:17:42;;;;;;;19.50;16.37;;;;;20.40;96640.00;;;;5054453;28;20205;-86
2023/09/13 06:20:31;;;;;;;20.63;16.30;;;;;20.80;96639.00;;;;5048541;28;20236;-85
2023/09/13 06:23:35;;;;;;;19.27;14.90;;;;;21.00;96629.00;;;;5051638;28;20201;-86
2023/09/13 06:26:24;;;;;;;18.50;14.33;;;;;21.30;96625.00;;;;5049910;28;20211;-85
2023/09/13 06:29:13;;;;;;;23.77;15.17;;;;;21.50;96635.00;;;;5050284;28;20203;-85
2023/09/13 06:32:03;;;;;;;16.80;15.07;;;;;21.50;96632.00;;;;5045571;28;20221;-86
2023/09/13 06:34:58;;;;;;;20.80;15.53;;;;;21.30;96631.00;;;;5047360;28;20636;-84
2023/09/13 06:37:47;;;;;;;18.90;15.57;;;;;21.50;96635.00;;;;5053121;28;20216;-86
2023/09/13 06:40:37;;;;;;;17.70;15.80;;;;;21.90;96643.00;;;;5045596;28;20247;-85
2023/09/13 06:43:26;;;;;;;17.30;14.80;;;;;22.10;96626.00;;;;5044387;28;20213;-86
2023/09/13 06:46:19;;;;;;;18.87;14.87;;;;;22.30;96645.00;;;;5045882;28;20211;-86
2023/09/13 06:49:08;;;;;;;17.03;14.80;;;;;22.30;96641.00;;;;5047624;28;20205;-86
2023/09/13 06:52:00;;;;;;;18.33;14.93;;;;;22.30;96640.00;;;;5048230;28;20719;-85
2023/09/13 06:54:51;;;;;;;18.17;13.80;;;;;22.20;96645.00;;;;5049169;28;20719;-86
2023/09/13 06:57:40;;;;;;;17.67;14.43;;;;;22.10;96633.00;;;;5047238;28;20274;-85
2023/09/13 07:00:30;;;;;;;20.20;15.17;;;;;22.20;96641.00;;;;5052009;28;20226;-85
2023/09/13 07:03:24;;;;;;;17.60;14.73;;;;;22.60;96639.00;;;;5050630;28;20583;-84
2023/09/13 07:06:14;;;;;;;23.03;14.47;;;;;22.30;96638.00;;;;5050414;28;20307;-85
2023/09/13 07:09:04;;;;;;;18.37;15.43;;;;;22.40;96645.00;;;;5049284;28;20204;-85
2023/09/13 07:11:53;;;;;;;17.50;14.33;;;;;22.80;96648.00;;;;5049083;28;20244;-84
2023/09/13 07:14:42;;;;;;;19.10;13.93;;;;;23.00;96649.00;;;;5051819;28;20857;-85
2023/09/13 07:17:31;;;;;;;19.67;14.27;;;;;22.90;96657.00;;;;5050854;28;20201;-85
2023/09/13 07:20:21;;;;;;;16.47;12.43;;;;;23.40;96653.00;;;;5053800;28;20220;-84
2023/09/13 07:23:10;;;;;;;16.30;12.73;;;;;24.00;96662.00;;;;5052573;28;20200;-85
2023/09/13 07:26:00;;;;;;;14.83;12.60;;;;;24.20;96668.00;;;;5048191;28;20204;-84
2023/09/13 07:28:49;;;;;;;16.07;11.97;;;;;24.50;96672.00;;;;5050370;28;20236;-85
2023/09/13 07:31:38;;;;;;;16.70;12.93;;;;;24.80;96673.00;;;;5050185;28;20216;-83
2023/09/13 07:34:27;;;;;;;14.60;11.53;;;;;24.90;96674.00;;;;5051886;28;20220;-83
2023/09/13 07:37:19;;;;;;;16.27;11.53;;;;;25.20;96665.00;;;;5049584;28;20212;-84
2023/09/13 07:40:10;;;;;;;21.70;13.00;;;;;25.60;96668.00;;;;5048720;28;20211;-84
2023/09/13 07:43:01;;;;;;;17.53;13.10;;;;;26.00;96667.00;;;;5047658;28;20228;-84
2023/09/13 07:45:52;;;;;;;13.23;10.73;;;;;26.40;96664.00;;;;5045319;28;20212;-85
2023/09/13 07:48:41;;;;;;;13.23;10.43;;;;;26.70;96667.00;;;;5055754;28;20570;-84
2023/09/13 07:51:30;;;;;;;14.60;10.30;;;;;27.00;96675.00;;;;5051781;28;20226;-86
2023/09/13 07:54:20;;;;;;;10.93;9.83;;;;;27.20;96672.00;;;;5054484;28;20204;-85
2023/09/13 07:57:09;;;;;;;16.30;11.07;;;;;27.10;96673.00;;;;5055772;28;20209;-85
2023/09/13 07:59:59;;;;;;;17.60;12.17;;;;;27.20;96667.00;;;;5052835;28;20196;-86
2023/09/13 08:02:48;;;;;;;18.50;11.33;;;;;27.90;96664.00;;;;5056359;28;20228;-84
2023/09/13 08:05:37;;;;;;;13.20;11.00;;;;;28.20;96673.00;;;;5051728;28;20209;-86
2023/09/13 08:08:26;;;;;;;16.00;10.57;;;;;28.20;96679.00;;;;5053751;28;20575;-85
2023/09/13 08:11:15;;;;;;;14.07;10.40;;;;;28.20;96670.00;;;;5052325;28;20229;-86
2023/09/13 08:14:05;;;;;;;16.27;10.17;;;;;28.20;96679.00;;;;5051963;28;20204;-84
2023/09/13 08:16:55;;;;;;;15.50;10.37;;;;;28.30;96682.00;;;;5046678;28;20211;-87
2023/09/13 08:19:46;;;;;;;12.47;9.67;;;;;28.30;96676.00;;;;5052131;28;20222;-85
2023/09/13 08:22:36;;;;;;;13.33;9.83;;;;;28.30;96686.00;;;;5050395;28;20727;-85
2023/09/13 08:25:28;;;;;;;13.83;10.57;;;;;28.30;96688.00;;;;5049430;28;20213;-85
2023/09/13 08:28:17;;;;;;;16.13;11.50;;;;;28.10;96700.00;;;;5051772;28;20215;-84
2023/09/13 08:31:06;;;;;;;13.03;9.73;;;;;28.10;96698.00;;;;5050373;28;20735;-86
2023/09/13 08:33:56;;;;;;;12.40;10.03;;;;;28.10;96694.00;;;;5049991;28;20207;-85
2023/09/13 08:36:45;;;;;;;17.80;10.77;;;;;28.10;96682.00;;;;5051872;28;20210;-84
2023/09/13 08:39:35;;;;;;;14.97;10.30;;;;;28.50;96694.00;;;;5048620;28;20205;-84
2023/09/13 08:42:24;;;;;;;12.67;9.57;;;;;28.40;96694.00;;;;5049283;28;20232;-84
2023/09/13 08:45:14;;;;;;;14.53;12.43;;;;;28.40;96700.00;;;;5053028;28;20908;-85
2023/09/13 08:48:04;;;;;;;12.67;9.20;;;;;28.70;96689.00;;;;5052741;28;20211;-87
2023/09/13 08:50:55;;;;;;;13.60;10.13;;;;;29.00;96695.00;;;;5050378;28;20232;-85
2023/09/13 08:53:44;;;;;;;13.97;10.43;;;;;29.40;96697.00;;;;5054830;28;20201;-85
2023/09/13 08:56:34;;;;;;;12.20;9.37;;;;;29.40;96686.00;;;;5055187;28;20728;-87
2023/09/13 08:59:23;;;;;;;16.17;9.60;;;;;29.80;96686.00;;;;5055747;28;20272;-87
2023/09/13 09:02:18;;;;;;;10.50;9.50;;;;;29.90;96687.00;;;;5056617;28;20226;-86
2023/09/13 09:05:08;;;;;;;12.80;9.30;;;;;30.00;96689.00;;;;5052343;28;20240;-85
2023/09/13 09:07:59;;;;;;;11.17;9.27;;;;;30.10;96684.00;;;;5053417;28;20217;-85
2023/09/13 09:10:51;;;;;;;12.90;9.83;;;;;30.30;96687.00;;;;5049486;28;20375;-84
2023/09/13 09:13:41;;;;;;;12.40;9.17;;;;;30.30;96687.00;;;;5049157;28;20815;-86
2023/09/13 09:16:32;;;;;;;11.87;8.73;;;;;30.40;96685.00;;;;5049165;28;20230;-85
2023/09/13 09:19:22;;;;;;;20.07;12.07;;;;;30.50;96690.00;;;;5048557;28;20211;-85
2023/09/13 09:22:12;;;;;;;10.03;8.73;;;;;30.80;96681.00;;;;5048639;28;20230;-84
2023/09/13 09:25:02;;;;;;;16.00;10.10;;;;;30.90;96688.00;;;;5047419;28;20593;-84
2023/09/13 09:27:52;;;;;;;11.63;8.80;;;;;31.00;96685.00;;;;5045812;28;20221;-84
2023/09/13 09:30:41;;;;;;;11.33;9.20;;;;;31.00;96689.00;;;;5048451;28;20245;-85
2023/09/13 09:33:31;;;;;;;15.17;11.80;;;;;31.10;96687.00;;;;5050566;28;20211;-84
2023/09/13 09:36:26;;;;;;;15.70;9.83;;;;;31.20;96683.00;;;;5048710;28;20202;-84
2023/09/13 09:39:15;;;;;;;13.03;9.10;;;;;31.60;96675.00;;;;5048962;28;20594;-83
2023/09/13 09:42:06;;;;;;;14.07;10.27;;;;;31.90;96676.00;;;;5047293;28;20246;-83
2023/09/13 09:44:55;;;;;;;13.93;9.33;;;28.60;99.90;32.10;96680.00;;;;5069899;28;20210;-84
2023/09/13 09:47:44;;;;;;;10.75;9.55;;;28.60;99.90;31.90;96683.00;;;;5071199;28;20200;-83
2023/09/13 09:50:33;;;;;;;14.20;8.80;;;28.80;99.90;32.20;96679.00;;;;5060533;28;20223;-85
2023/09/13 09:53:23;;;;;;;11.35;9.90;;;28.90;99.90;32.70;96686.00;;;;5059475;28;20782;-85
2023/09/13 09:56:12;;;;;;;9.48;8.43;;;29.10;99.90;32.90;96681.00;;;;5055208;28;20224;-84
2023/09/13 09:59:03;;;;;;;9.18;8.25;;;29.30;99.90;32.60;96689.00;;;;5050260;28;20207;-85
2023/09/13 10:01:57;;;;;;;14.50;9.38;;;29.40;99.20;32.30;96689.00;;;;5051677;28;20610;-84
2023/09/13 10:04:50;;;;;;;14.32;9.05;;;29.50;98.10;33.10;96681.00;;;;5056140;28;20193;-87
2023/09/13 10:07:41;;;;;;;15.52;9.25;;;29.60;98.60;32.90;96692.00;;;;5056970;28;20220;-85
2023/09/13 10:10:33;;;;;;;10.93;9.18;;;29.80;97.50;33.20;96675.00;;;;5057341;28;20223;-85
2023/09/13 10:13:23;;;;;;;9.65;8.63;;;29.80;97.50;33.10;96689.00;;;;5055766;28;20219;-85
2023/09/13 10:16:16;;;;;;;10.82;9.13;;;29.90;97.00;32.40;96688.00;;;;5053340;28;20631;-84
2023/09/13 10:19:11;;;;;;;9.70;8.75;;;29.80;96.50;32.60;96691.00;;;;5054036;28;20652;-85
2023/09/13 10:22:01;;;;;;;12.25;9.13;;;29.70;96.30;32.30;96698.00;;;;5054384;28;20731;-85
2023/09/13 10:24:56;;;;;;;11.30;9.02;;;29.60;95.90;32.40;96695.00;;;;5054031;28;20594;-85
2023/09/13 10:27:50;;;;;;;10.50;8.95;;;29.50;96.30;33.20;96669.00;;;;5058210;28;20196;-87
2023/09/13 10:30:39;;;;;;;13.45;8.50;;;29.70;96.80;34.00;96691.00;;;;5063789;28;20218;-85
2023/09/13 10:33:33;;;;;;;10.60;9.07;;;30.00;96.60;33.60;96681.00;;;;5062990;28;20219;-85
2023/09/13 10:36:28;;;;;;;11.18;9.75;;;30.30;95.40;33.20;96698.00;;;;5059426;28;20572;-87
2023/09/13 10:39:25;;;;;;;11.35;9.32;;;30.30;94.70;33.20;96701.00;;;;5061772;28;20206;-85
2023/09/13 10:42:15;;;;;;;10.63;9.52;;;30.20;95.10;33.40;96699.00;;;;5058654;28;20791;-86
2023/09/13 10:45:04;;;;;;;12.05;10.15;;;30.20;95.20;33.20;96699.00;;;;5059035;28;20201;-84
2023/09/13 10:47:55;;;;;;;11.82;9.18;;;30.20;95.40;33.80;96683.00;;;;5062823;28;20210;-85
2023/09/13 10:50:46;;;;;;;10.75;9.75;;;30.30;95.40;34.00;96690.00;;;;5058874;28;20237;-85
2023/09/13 10:53:35;;;;;;;10.10;9.02;;;30.50;95.00;34.00;96683.00;;;;5061767;28;20208;-84
2023/09/13 10:56:24;;;;;;;12.80;8.80;;;30.60;93.90;33.90;96684.00;;;;5058585;28;20849;-85
2023/09/13 10:59:17;;;;;;;11.13;10.02;;;30.60;94.00;33.70;96701.00;;;;5056998;28;20616;-85
2023/09/13 11:02:07;;;;;;;11.90;9.77;;;30.60;94.00;33.40;96693.00;;;;5057241;28;20225;-85
2023/09/13 11:04:56;;;;;;;10.75;9.38;;;30.40;93.60;33.00;96694.00;;;;5054159;28;20210;-86
2023/09/13 11:07:48;;;;;;;10.55;9.10;;;30.30;94.00;32.90;96687.00;;;;5046972;28;20203;-85
2023/09/13 11:10:38;;;;;;;16.58;10.50;;;30.20;94.70;31.90;96679.00;;;;5055249;28;20224;-85
2023/09/13 11:13:32;;;;;;;16.02;10.90;;;30.00;95.60;31.90;96668.00;;;;5052700;28;20245;-85
2023/09/13 11:16:24;;;;;;;12.82;10.63;;;29.80;96.40;31.10;96664.00;;;;5051027;28;20214;-85
2023/09/13 11:19:13;;;;;;;11.32;10.00;;;29.40;96.60;31.80;96675.00;;;;5052283;28;20210;-84
2023/09/13 11:22:03;;;;;;;12.48;10.38;;;29.40;97.50;32.50;96665.00;;;;5049417;28;20234;-84
2023/09/13 11:24:53;;;;;;;16.48;10.65;;;29.40;97.80;31.00;96659.00;;;;5043841;28;20273;-83
2023/09/13 11:27:49;;;;;;;12.15;10.95;;;29.30;97.40;30.60;96660.00;;;;5043722;28;20192;-84
2023/09/13 11:30:49;;;;;;;13.20;11.82;;;28.50;98.10;30.10;96655.00;;;;5042874;28;20224;-83
2023/09/13 11:33:40;;;;;;;13.87;11.33;;;28.50;97.60;30.50;96656.00;;;;5043295;28;20216;-85
2023/09/13 11:36:31;;;;;;;12.97;10.93;;;28.40;97.40;32.30;96653.00;;;;5042506;28;20219;-84
2023/09/13 11:39:20;;;;;;;11.17;10.03;;;28.70;98.30;33.60;96634.00;;;;5040813;28;20668;-85
2023/09/13 11:42:11;;;;;;;13.88;11.90;;;29.30;98.50;34.80;96654.00;;;;5040177;28;20259;-85
2023/09/13 11:45:10;;;;;;;11.35;10.00;;;30.10;99.20;34.80;96655.00;;;;5041260;28;20223;-85
2023/09/13 11:48:12;;;;;;;13.10;10.10;;;30.70;97.50;34.60;96650.00;;;;5042107;28;20212;-85
2023/09/13 11:51:12;;;;;;;11.38;10.07;;;31.20;95.30;36.00;96670.00;;;;5044886;28;20239;-86
2023/09/13 11:54:15;;;;;;;15.13;10.35;;;31.80;95.30;35.80;96642.00;;;;5044768;28;20762;-84
2023/09/13 11:57:06;;;;;;;14.07;10.32;;;32.20;93.70;36.80;96651.00;;;;5042795;28;20203;-85
2023/09/13 12:00:16;;;;;;;12.35;11.23;;;32.60;93.50;37.20;96649.00;;;;5044234;28;20204;-86
2023/09/13 12:03:05;;;;;;;12.38;9.75;;;33.20;92.60;38.00;96669.00;;;;5041538;28;20212;-86
2023/09/13 12:05:54;;;;;;;11.80;9.80;;;33.60;92.40;38.50;96666.00;;;;5042444;28;20204;-86
2023/09/13 12:08:48;;;;;;;10.93;9.95;;;33.40;91.40;38.10;96668.00;;;;5040227;28;20697;-86
2023/09/13 12:11:39;;;;;;;9.93;9.13;;;34.40;93.10;38.10;96639.00;;;;5044036;28;20219;-86
2023/09/13 12:14:30;;;;;;;11.05;9.57;;;34.60;89.90;37.80;96634.00;;;;5046551;28;20201;-85
2023/09/13 12:17:39;;;;;;;10.70;9.57;;;34.70;88.40;38.70;96634.00;;;;5050465;28;20201;-87
2023/09/13 12:20:31;;;;;;;9.68;8.77;;;34.90;85.90;39.50;96630.00;;;;5051131;28;20220;-86
2023/09/13 12:23:20;;;;;;;11.60;9.52;;;35.10;85.40;39.80;96627.00;;;;5050298;28;20200;-86
2023/09/13 12:26:12;;;;;;;9.30;8.50;;;35.50;84.00;35.90;96610.00;;;;5042860;28;20213;-86
2023/09/13 12:29:01;;;;;;;9.90;8.45;;;34.60;81.10;35.50;96623.00;;;;5044635;28;20234;-85
2023/09/13 12:31:57;;;;;;;10.30;9.20;;;;;36.90;96629.00;;;;5044809;28;20231;-85
2023/09/13 12:34:47;;;;;;;11.40;9.30;;;34.00;81.30;35.90;96636.00;;;;5044276;28;20567;-86
2023/09/13 12:37:36;;;;;;;11.50;10.20;;;33.70;83.50;36.80;96647.00;;;;5045932;28;20213;-84
2023/09/13 12:40:28;;;;;;;10.30;9.30;;;33.60;83.90;36.80;96635.00;;;;5045930;28;20257;-84
2023/09/13 12:43:16;;;;;;;9.10;8.20;;;33.60;83.60;35.30;96628.00;;;;5044114;28;20207;-85
2023/09/13 12:46:08;;;;;;;10.57;9.55;;;32.60;81.50;34.30;96627.00;;;;5046706;28;20890;-84
2023/09/13 12:49:03;;;;;;;10.48;9.32;;;33.00;82.60;34.10;96606.00;;;;5044245;28;20200;-84
2023/09/13 12:51:53;;;;;;;13.18;10.40;;;;;32.50;96639.00;;;;5044623;28;20717;-85
2023/09/13 12:54:42;;;;;;;11.77;9.88;;;;;31.60;96647.00;;;;5048658;28;20200;-88
2023/09/13 12:57:31;;;;;;;11.65;10.48;;;;;31.10;96654.00;;;;5046734;28;20242;-85
2023/09/13 13:00:20;;;;;;;11.18;9.98;;;;;31.00;96654.00;;;;5049067;28;20223;-85
2023/09/13 13:03:10;;;;;;;11.43;9.57;;;;;30.80;96651.00;;;;5048592;28;20218;-86
2023/09/13 13:06:01;;;;;;;11.10;10.00;;;;;30.50;96648.00;;;;5045870;28;20200;-85
2023/09/13 13:08:52;;;;;;;10.65;9.38;;;;;30.30;96651.00;;;;5048421;28;20219;-85
2023/09/13 13:11:41;;;;;;;13.17;10.17;;;;;30.10;96647.00;;;;5047600;28;20235;-84
2023/09/13 13:14:30;;;;;;;10.63;9.37;;;;;29.10;96646.00;;;;5045816;28;20207;-85
2023/09/13 13:17:19;;;;;;;10.97;8.97;;;;;29.30;96646.00;;;;5045946;28;20204;-86
2023/09/13 13:20:09;;;;;;;13.23;10.67;;;;;29.00;96671.00;;;;5044437;28;20219;-86
2023/09/13 13:23:01;;;;;;;14.43;9.33;;;;;29.30;96672.00;;;;5045027;28;20207;-83
2023/09/13 13:25:52;;;;;;;12.60;9.50;;;;;28.90;96667.00;;;;5041431;28;20238;-85
2023/09/13 13:28:41;;;;;;;9.97;9.00;;;;;29.20;96663.00;;;;5045494;28;20210;-86
2023/09/13 13:31:30;;;;;;;10.80;9.17;;;;;29.30;96670.00;;;;5044337;28;20238;-84